Time;durP1;ratioP1;P1;durP2;ratioP2;P2;SDS_P1;SDS_P2;PMS_P1;PMS_P2;Temp;Humidity;BMP_temperature;BMP_pressure;BME280_temperature;BME280_humidity;BME280_pressure;Samples;Min_cycle;Max_cycle;Signal;HPM_P1;HPM_P2
2023/04/20 00:02:26;;;;;;;9.90;2.40;;;;;;;19.78;35.58;99327.61;104380;1254;60556;-62
2023/04/20 00:04:54;;;;;;;19.00;2.80;;;;;;;19.79;35.43;99327.55;104547;1254;73666;-62
2023/04/20 00:07:23;;;;;;;18.40;2.60;;;;;;;19.76;35.30;99324.75;104562;1253;69503;-61
2023/04/20 00:09:51;;;;;;;9.50;2.20;;;;;;;19.74;35.45;99323.03;104533;1254;72011;-61
2023/04/20 00:12:21;;;;;;;9.60;2.50;;;;;;;19.68;35.62;99322.77;104549;1257;60549;-62
2023/04/20 00:14:49;;;;;;;11.00;2.30;;;;;;;19.59;35.71;99322.25;104637;1251;60558;-62
2023/04/20 00:17:18;;;;;;;13.20;3.10;;;;;;;19.61;35.78;99323.85;104383;1251;73278;-62
2023/04/20 00:19:46;;;;;;;11.80;2.20;;;;;;;19.62;35.63;99323.98;104681;1251;70345;-62
2023/04/20 00:22:15;;;;;;;16.10;2.90;;;;;;;19.63;35.57;99319.58;104551;1267;71924;-62
2023/04/20 00:24:43;;;;;;;8.40;2.10;;;;;;;19.59;35.50;99319.75;104583;1251;60641;-62
2023/04/20 00:27:12;;;;;;;14.10;2.50;;;;;;;19.62;35.52;99321.67;104527;1254;60574;-61
2023/04/20 00:29:40;;;;;;;10.20;2.50;;;;;;;19.62;35.54;99313.83;104608;1254;73573;-62
2023/04/20 00:32:08;;;;;;;10.10;1.90;;;;;;;19.65;35.47;99310.71;104584;1256;68828;-62
2023/04/20 00:34:37;;;;;;;16.10;2.70;;;;;;;19.67;35.43;99311.85;104670;1251;71740;-62
2023/04/20 00:37:05;;;;;;;12.00;2.30;;;;;;;19.63;35.36;99307.56;104601;1267;60558;-62
2023/04/20 00:39:34;;;;;;;10.40;2.30;;;;;;;19.66;35.44;99307.16;104343;1258;60950;-64
2023/04/20 00:42:05;;;;;;;11.50;2.30;;;;;;;19.69;35.25;99300.45;104448;1253;72990;-62
2023/04/20 00:44:34;;;;;;;11.50;2.50;;;;;;;19.71;35.32;99296.55;104407;1256;69860;-63
2023/04/20 00:47:02;;;;;;;14.30;2.40;;;;;;;19.70;35.24;99300.05;104339;1257;73014;-62
2023/04/20 00:49:33;;;;;;;6.50;2.10;;;;;;;19.71;35.20;99299.05;104520;1251;60581;-65
2023/04/20 00:52:01;;;;;;;10.70;2.10;;;;;;;19.67;35.27;99294.77;104483;1251;60565;-63
2023/04/20 00:54:31;;;;;;;13.80;2.30;;;;;;;19.67;35.48;99287.86;104448;1254;73240;-62
2023/04/20 00:57:00;;;;;;;7.10;2.00;;;;;;;19.59;35.58;99285.98;104460;1251;68747;-62
2023/04/20 00:59:28;;;;;;;12.20;2.60;;;;;;;19.61;35.43;99282.10;104572;1252;72699;-63
2023/04/20 01:01:57;;;;;;;17.50;2.40;;;;;;;19.63;35.33;99281.43;104558;1251;60454;-64
2023/04/20 01:04:25;;;;;;;6.20;1.90;;;;;;;19.63;35.40;99279.66;104487;1251;60457;-63
2023/04/20 01:06:54;;;;;;;10.20;2.10;;;;;;;19.62;35.37;99280.10;104427;1261;73007;-62
2023/04/20 01:09:23;;;;;;;11.50;3.20;;;;;;;19.59;35.42;99276.98;104665;1254;69239;-62
2023/04/20 01:11:51;;;;;;;12.60;2.70;;;;;;;19.58;35.45;99277.89;104544;1254;72332;-62
2023/04/20 01:14:20;;;;;;;6.40;1.80;;;;;;;19.59;35.58;99272.89;104490;1251;60568;-62
2023/04/20 01:16:48;;;;;;;7.60;1.80;;;;;;;19.59;35.49;99274.85;104425;1251;60427;-62
2023/04/20 01:19:16;;;;;;;8.20;2.30;;;;;;;19.59;35.48;99270.73;104516;1263;73917;-63
2023/04/20 01:21:46;;;;;;;7.90;2.10;;;;;;;19.56;35.65;99272.58;104456;1267;69946;-62
2023/04/20 01:24:16;;;;;;;11.90;2.90;;;;;;;19.53;35.53;99269.64;104401;1266;71764;-62
2023/04/20 01:26:44;;;;;;;8.00;2.40;;;;;;;19.52;35.51;99266.18;104497;1251;60491;-62
2023/04/20 01:29:13;;;;;;;6.20;1.80;;;;;;;19.53;35.66;99263.44;104687;1252;60462;-61
2023/04/20 01:31:43;;;;;;;8.40;2.80;;;;;;;19.52;35.71;99265.34;104445;1250;73847;-62
2023/04/20 01:34:11;;;;;;;10.10;2.90;;;;;;;19.48;35.78;99266.53;104452;1267;69521;-61
2023/04/20 01:36:39;;;;;;;9.50;2.20;;;;;;;19.42;35.83;99267.05;104487;1254;71686;-62
2023/04/20 01:39:08;;;;;;;9.50;2.30;;;;;;;19.47;35.76;99268.56;104551;1263;60904;-61
2023/04/20 01:41:38;;;;;;;11.00;2.50;;;;;;;19.44;35.92;99269.56;104519;1254;60661;-62
2023/04/20 01:44:06;;;;;;;13.00;2.70;;;;;;;19.47;35.92;99268.42;104439;1254;73197;-63
2023/04/20 01:46:38;;;;;;;15.80;2.20;;;;;;;19.47;35.94;99265.73;104453;1256;69558;-62
2023/04/20 01:49:07;;;;;;;14.90;2.90;;;;;;;19.51;35.98;99263.30;104705;1251;73658;-62
2023/04/20 01:51:36;;;;;;;10.50;2.40;;;;;;;19.53;35.82;99264.00;104647;1266;60561;-62
2023/04/20 01:54:05;;;;;;;9.50;2.10;;;;;;;19.54;36.01;99260.27;104580;1251;60456;-62
2023/04/20 01:56:34;;;;;;;8.60;2.30;;;;;;;19.56;36.08;99257.96;104616;1254;74041;-62
2023/04/20 01:59:03;;;;;;;11.60;2.30;;;;;;;19.52;36.13;99253.08;104442;1258;69604;-62
2023/04/20 02:01:31;;;;;;;7.30;2.00;;;;;;;19.51;35.96;99257.06;104414;1257;71629;-61
2023/04/20 02:04:00;;;;;;;10.40;1.90;;;;;;;19.48;36.18;99254.43;104669;1251;60593;-62
2023/04/20 02:06:30;;;;;;;12.60;2.10;;;;;;;19.40;36.11;99252.81;104538;1252;60558;-61
2023/04/20 02:08:58;;;;;;;10.00;2.20;;;;;;;19.38;36.23;99249.61;104451;1254;73026;-61
2023/04/20 02:11:27;;;;;;;7.10;2.10;;;;;;;19.38;36.38;99248.73;104484;1253;70122;-62
2023/04/20 02:13:56;;;;;;;14.40;2.30;;;;;;;19.33;36.37;99252.58;104575;1254;71889;-62
2023/04/20 02:16:28;;;;;;;9.40;2.70;;;;;;;19.35;36.44;99245.08;104562;1267;60558;-62
2023/04/20 02:18:56;;;;;;;15.00;2.40;;;;;;;19.36;36.25;99244.09;104720;1267;60427;-62
2023/04/20 02:21:25;;;;;;;10.20;2.30;;;;;;;19.41;36.19;99246.01;104341;1257;74932;-62
2023/04/20 02:23:53;;;;;;;12.10;2.30;;;;;;;19.39;36.30;99243.48;104576;1253;69235;-65
2023/04/20 02:26:22;;;;;;;12.30;2.30;;;;;;;19.38;36.39;99242.28;104613;1251;72682;-63
2023/04/20 02:28:51;;;;;;;8.00;1.70;;;;;;;19.41;36.20;99239.77;104629;1254;60555;-62
2023/04/20 02:31:19;;;;;;;8.00;1.80;;;;;;;19.32;36.39;99240.67;104592;1256;60892;-62
2023/04/20 02:33:48;;;;;;;11.30;1.90;;;;;;;19.29;36.52;99239.76;104500;1267;72585;-62
2023/04/20 02:36:17;;;;;;;11.30;2.30;;;;;;;19.33;36.48;99238.35;104420;1260;68750;-62
2023/04/20 02:38:45;;;;;;;14.30;3.20;;;;;;;19.28;36.46;99232.52;104565;1254;71517;-62
2023/04/20 02:41:13;;;;;;;12.20;2.20;;;;;;;19.27;36.58;99231.14;104845;1254;60552;-62
2023/04/20 02:43:42;;;;;;;11.80;2.10;;;;;;;19.28;36.55;99231.23;104731;1254;60427;-61
2023/04/20 02:46:10;;;;;;;14.90;1.90;;;;;;;19.31;36.58;99228.58;104490;1255;72721;-63
2023/04/20 02:48:39;;;;;;;11.00;2.60;;;;;;;19.28;36.56;99225.58;104369;1259;68529;-62
2023/04/20 02:51:08;;;;;;;16.80;2.10;;;;;;;19.24;36.63;99222.92;104895;1251;72284;-62
2023/04/20 02:53:42;;;;;;;9.40;2.00;;;;;;;19.20;36.53;99221.45;104662;1252;60936;-62
2023/04/20 02:56:20;;;;;;;11.80;2.00;;;;;;;19.22;36.72;99217.20;104577;1261;60562;-62
2023/04/20 02:58:53;;;;;;;8.00;1.90;;;;;;;19.16;36.74;99216.63;104527;1256;73410;-62
2023/04/20 03:01:31;;;;;;;12.10;2.20;;;;;;;19.20;36.76;99216.32;104628;1257;69805;-63
2023/04/20 03:04:11;;;;;;;9.70;2.10;;;;;;;19.20;36.56;99214.39;104674;1251;72073;-66
2023/04/20 03:06:46;;;;;;;13.60;2.30;;;;;;;19.17;36.60;99215.30;104489;1252;60577;-63
2023/04/20 03:09:17;;;;;;;17.30;2.40;;;;;;;19.20;36.50;99221.26;104631;1263;60450;-62
2023/04/20 03:12:04;;;;;;;9.30;1.90;;;;;;;19.19;36.59;99221.19;104545;1254;72937;-62
2023/04/20 03:14:58;;;;;;;8.30;2.00;;;;;;;19.20;36.45;99220.63;104330;1263;69225;-63
2023/04/20 03:17:56;;;;;;;10.80;2.10;;;;;;;19.27;36.49;99218.59;104203;1267;71766;-63
2023/04/20 03:20:25;;;;;;;12.40;2.20;;;;;;;19.30;36.27;99221.64;104428;1262;60555;-62
2023/04/20 03:22:54;;;;;;;9.40;2.10;;;;;;;19.30;36.44;99215.44;104607;1252;60446;-63
2023/04/20 03:25:24;;;;;;;7.20;1.80;;;;;;;19.33;36.24;99216.23;104769;1254;72771;-62
2023/04/20 03:27:59;;;;;;;21.80;2.40;;;;;;;19.34;36.23;99218.33;104584;1251;69452;-62
2023/04/20 03:30:29;;;;;;;13.20;2.40;;;;;;;19.29;36.27;99219.09;104504;1263;71668;-62
2023/04/20 03:33:07;;;;;;;8.10;2.10;;;;;;;19.30;36.20;99220.66;104805;1258;60504;-62
2023/04/20 03:35:38;;;;;;;10.40;2.50;;;;;;;19.26;36.28;99218.99;104379;1272;60204;-62
2023/04/20 03:38:06;;;;;;;7.50;1.90;;;;;;;19.26;36.38;99217.98;104530;1251;73527;-62
2023/04/20 03:40:37;;;;;;;13.50;2.30;;;;;;;19.29;36.22;99219.68;104810;1254;69701;-62
2023/04/20 03:43:05;;;;;;;6.70;1.80;;;;;;;19.31;36.20;99215.34;104806;1251;72785;-62
2023/04/20 03:45:33;;;;;;;8.50;2.40;;;;;;;19.34;36.20;99214.92;104615;1257;60558;-62
2023/04/20 03:48:02;;;;;;;10.60;2.20;;;;;;;19.33;36.24;99216.80;105035;1253;60453;-64
2023/04/20 03:50:31;;;;;;;5.40;2.00;;;;;;;19.33;36.29;99216.61;104427;1258;73964;-62
2023/04/20 03:53:00;;;;;;;11.50;2.40;;;;;;;19.36;36.33;99214.76;104379;1266;70207;-61
2023/04/20 03:55:29;;;;;;;14.90;2.50;;;;;;;19.34;36.08;99213.13;104239;1254;72324;-64
2023/04/20 03:58:02;;;;;;;10.80;2.30;;;;;;;19.35;36.21;99211.88;104461;1254;60628;-64
2023/04/20 04:00:38;;;;;;;8.20;1.90;;;;;;;19.35;36.01;99210.05;104719;1252;60527;-63
2023/04/20 04:03:07;;;;;;;11.00;2.20;;;;;;;19.39;36.00;99211.51;104454;1256;74129;-63
2023/04/20 04:05:36;;;;;;;8.80;2.30;;;;;;;19.43;36.01;99208.08;104873;1256;68517;-63
2023/04/20 04:08:05;;;;;;;11.80;2.50;;;;;;;19.47;36.05;99211.35;104528;1260;71773;-63
2023/04/20 04:10:34;;;;;;;10.10;2.30;;;;;;;19.47;35.99;99209.89;104302;1257;60457;-63
2023/04/20 04:13:02;;;;;;;13.90;3.30;;;;;;;19.50;35.90;99214.64;104414;1254;60559;-62
2023/04/20 04:15:31;;;;;;;13.70;2.90;;;;;;;19.44;35.99;99211.20;104506;1257;74119;-62
2023/04/20 04:18:03;;;;;;;10.90;2.80;;;;;;;19.42;36.01;99212.62;104342;1253;68442;-63
2023/04/20 04:20:32;;;;;;;4.80;1.90;;;;;;;19.47;35.94;99210.79;104316;1254;73514;-63
2023/04/20 04:23:00;;;;;;;13.60;2.50;;;;;;;19.50;35.95;99208.42;104424;1255;60606;-63
2023/04/20 04:25:41;;;;;;;8.60;2.00;;;;;;;19.52;36.14;99208.42;104350;1253;60562;-63
2023/04/20 04:28:13;;;;;;;10.00;2.30;;;;;;;19.51;36.20;99212.55;104463;1270;73267;-65
2023/04/20 04:30:55;;;;;;;7.80;1.90;;;;;;;19.54;36.17;99215.52;104408;1256;69240;-62
2023/04/20 04:33:25;;;;;;;9.60;2.50;;;;;;;19.47;36.50;99219.48;104370;1257;72914;-63
2023/04/20 04:35:54;;;;;;;13.00;3.00;;;;;;;19.39;36.63;99218.39;104452;1254;60664;-64
2023/04/20 04:38:23;;;;;;;12.60;3.20;;;;;;;19.37;36.97;99216.07;105019;1254;60485;-61
2023/04/20 04:40:52;;;;;;;14.60;2.50;;;;;;;19.32;37.20;99212.95;104593;1256;73380;-59
2023/04/20 04:43:23;;;;;;;16.00;3.10;;;;;;;19.35;37.51;99220.03;104387;1270;69216;-63
2023/04/20 04:46:09;;;;;;;12.50;2.50;;;;;;;19.42;37.43;99216.20;104772;1254;73149;-60
2023/04/20 04:48:42;;;;;;;8.50;2.50;;;;;;;19.42;37.71;99214.91;104498;1257;60407;-62
2023/04/20 04:51:10;;;;;;;7.60;2.20;;;;;;;19.42;37.72;99212.67;104741;1254;60538;-63
2023/04/20 04:53:39;;;;;;;12.80;2.40;;;;;;;19.31;38.08;99215.70;104466;1266;73919;-64
2023/04/20 04:56:08;;;;;;;7.30;2.50;;;;;;;19.23;38.69;99211.98;104556;1259;69353;-66
2023/04/20 04:58:37;;;;;;;10.40;2.70;;;;;;;19.20;38.60;99208.85;104406;1257;73883;-63
2023/04/20 05:01:06;;;;;;;13.60;2.30;;;;;;;19.19;38.82;99213.92;104249;1257;61122;-61
2023/04/20 05:03:34;;;;;;;9.70;2.10;;;;;;;19.21;38.98;99212.36;104428;1259;61119;-65
2023/04/20 05:06:03;;;;;;;8.00;2.10;;;;;;;19.27;39.22;99207.06;104407;1254;73993;-65
2023/04/20 05:08:33;;;;;;;15.30;2.20;;;;;;;19.31;39.67;99208.27;104447;1256;69293;-66
2023/04/20 05:11:01;;;;;;;10.10;2.30;;;;;;;19.33;39.73;99200.30;104316;1268;74310;-64
2023/04/20 05:13:30;;;;;;;7.40;2.50;;;;;;;19.34;39.90;99202.88;104209;1264;60877;-66
2023/04/20 05:15:58;;;;;;;18.60;3.70;;;;;;;19.32;39.72;99201.07;104395;1257;60460;-63
2023/04/20 05:18:26;;;;;;;14.00;2.80;;;;;;;19.38;40.27;99204.63;104439;1256;74396;-65
2023/04/20 05:20:55;;;;;;;10.10;2.20;;;;;;;19.43;40.66;99202.61;104348;1256;69704;-66
2023/04/20 05:23:24;;;;;;;13.00;3.10;;;;;;;19.44;40.63;99206.79;104371;1262;71790;-66
2023/04/20 05:25:52;;;;;;;10.20;2.60;;;;;;;19.46;40.96;99206.13;104393;1259;62031;-66
2023/04/20 05:28:21;;;;;;;11.70;2.70;;;;;;;19.45;41.04;99202.45;104343;1257;61311;-67
2023/04/20 05:30:49;;;;;;;11.70;2.60;;;;;;;19.43;41.51;99205.30;104629;1264;73461;-65
2023/04/20 05:33:18;;;;;;;9.90;2.30;;;;;;;19.42;41.17;99206.24;104603;1257;69694;-68
2023/04/20 05:35:47;;;;;;;8.40;3.10;;;;;;;19.39;41.26;99210.73;104384;1256;73432;-63
2023/04/20 05:38:16;;;;;;;10.60;3.00;;;;;;;19.34;41.71;99209.20;104397;1258;61736;-65
2023/04/20 05:40:44;;;;;;;9.40;3.40;;;;;;;19.23;42.13;99212.33;104463;1257;60531;-61
2023/04/20 05:43:13;;;;;;;11.30;3.10;;;;;;;19.13;41.87;99213.23;105052;1254;72893;-62
2023/04/20 05:45:42;;;;;;;11.20;2.60;;;;;;;19.05;42.33;99217.09;104429;1270;68909;-62
2023/04/20 05:48:10;;;;;;;11.10;2.70;;;;;;;19.06;41.99;99221.95;104677;1263;72703;-62
2023/04/20 05:50:39;;;;;;;12.70;3.40;;;;;;;18.94;41.97;99220.66;104268;1273;61392;-61
2023/04/20 05:53:07;;;;;;;11.80;2.60;;;;;;;18.80;42.90;99219.98;104319;1256;60440;-61
2023/04/20 05:55:36;;;;;;;11.60;3.70;;;;;;;18.74;43.29;99224.79;104515;1256;74402;-63
2023/04/20 05:58:04;;;;;;;10.70;2.70;;;;;;;18.66;43.87;99227.06;104568;1251;69266;-61
2023/04/20 06:00:34;;;;;;;14.40;2.80;;;;;;;18.61;43.89;99224.60;104677;1251;71969;-63
2023/04/20 06:03:02;;;;;;;11.80;3.50;;;;;;;18.50;44.35;99227.28;104527;1266;61824;-61
2023/04/20 06:05:32;;;;;;;6.20;2.50;;;;;;;18.41;46.31;99228.05;104459;1256;62163;-62
2023/04/20 06:08:01;;;;;;;16.20;3.60;;;;;;;18.44;45.77;99221.89;104381;1266;73954;-61
2023/04/20 06:10:31;;;;;;;8.10;2.60;;;;;;;18.43;46.10;99220.02;104197;1273;69885;-61
2023/04/20 06:13:00;;;;;;;9.50;2.70;;;;;;;18.49;46.65;99215.13;104540;1251;72167;-60
2023/04/20 06:15:28;;;;;;;14.40;3.20;;;;;;;18.51;46.28;99214.62;104299;1252;61201;-61
2023/04/20 06:17:57;;;;;;;12.70;3.10;;;;;;;18.53;46.70;99222.79;104310;1251;60585;-62
2023/04/20 06:20:25;;;;;;;17.10;3.30;;;;;;;18.53;46.98;99218.67;104659;1251;74415;-61
2023/04/20 06:22:55;;;;;;;9.40;2.60;;;;;;;18.50;47.09;99218.38;104722;1267;68821;-61
2023/04/20 06:25:23;;;;;;;15.60;4.20;;;;;;;18.49;46.64;99212.27;104513;1251;72695;-61
2023/04/20 06:27:51;;;;;;;14.10;2.80;;;;;;;18.45;47.31;99210.27;104694;1254;61408;-61
2023/04/20 06:30:20;;;;;;;11.00;2.50;;;;;;;18.47;48.32;99213.30;104690;1255;61070;-60
2023/04/20 06:32:49;;;;;;;14.80;3.10;;;;;;;18.53;48.08;99210.68;104594;1257;73113;-62
2023/04/20 06:35:18;;;;;;;10.70;3.10;;;;;;;18.65;48.39;99207.61;104288;1259;69482;-62
2023/04/20 06:37:46;;;;;;;10.40;3.20;;;;;;;18.72;48.56;99206.27;104381;1256;72104;-61
2023/04/20 06:40:15;;;;;;;9.30;3.20;;;;;;;18.85;47.96;99205.77;104447;1256;61145;-61
2023/04/20 06:42:44;;;;;;;18.50;3.60;;;;;;;18.83;47.95;99205.73;104238;1260;59881;-63
2023/04/20 06:45:13;;;;;;;16.40;3.70;;;;;;;18.91;48.53;99202.83;104363;1260;74403;-61
2023/04/20 06:47:41;;;;;;;16.70;3.60;;;;;;;18.93;48.18;99194.30;104391;1260;70420;-60
2023/04/20 06:50:10;;;;;;;12.00;3.10;;;;;;;18.90;49.02;99188.16;105186;1254;72357;-60
2023/04/20 06:52:39;;;;;;;14.40;3.20;;;;;;;18.93;50.21;99181.81;104724;1260;61185;-61
2023/04/20 06:55:08;;;;;;;13.60;3.40;;;;;;;19.07;48.96;99177.50;104787;1251;61015;-62
2023/04/20 06:57:39;;;;;;;16.80;4.00;;;;;;;19.13;48.70;99180.84;104713;1254;74824;-60
2023/04/20 07:00:09;;;;;;;15.40;3.10;;;;;;;19.15;48.43;99179.60;104970;1267;68387;-60
2023/04/20 07:02:42;;;;;;;14.30;3.20;;;;;;;19.21;48.47;99182.48;104468;1251;72080;-60
2023/04/20 07:05:11;;;;;;;15.80;3.50;;;;;;;19.21;48.72;99179.40;104460;1262;62037;-60
2023/04/20 07:07:40;;;;;;;13.60;3.30;;;;;;;19.26;48.50;99175.34;104906;1263;60568;-61
2023/04/20 07:10:10;;;;;;;12.70;3.80;;;;;;;19.31;48.68;99167.36;104655;1263;74001;-65
2023/04/20 07:12:39;;;;;;;15.70;3.30;;;;;;;19.43;48.88;99167.64;104652;1267;71502;-62
2023/04/20 07:15:11;;;;;;;18.60;3.50;;;;;;;19.60;48.09;99169.48;104438;1254;72513;-61
2023/04/20 07:17:39;;;;;;;18.80;3.40;;;;;;;19.67;47.68;99167.29;104369;1270;61395;-61
2023/04/20 07:20:09;;;;;;;8.60;2.70;;;;;;;19.69;47.63;99171.35;104655;1263;60152;-61
2023/04/20 07:22:38;;;;;;;15.70;3.20;;;;;;;19.63;47.32;99170.31;105074;1251;73684;-62
2023/04/20 07:25:07;;;;;;;14.50;3.10;;;;;;;19.58;47.54;99170.78;104451;1251;69766;-61
2023/04/20 07:27:37;;;;;;;12.30;3.90;;;;;;;19.61;47.43;99172.82;105065;1254;73750;-62
2023/04/20 07:30:07;;;;;;;17.20;3.40;;;;;;;19.60;47.50;99166.61;105005;1251;62246;-62
2023/04/20 07:32:36;;;;;;;11.20;3.10;;;;;;;19.59;47.37;99171.75;104850;1251;61137;-61
2023/04/20 07:35:05;;;;;;;8.80;2.70;;;;;;;19.59;47.74;99172.26;104703;1260;73259;-62
2023/04/20 07:37:34;;;;;;;15.00;3.50;;;;;;;19.59;47.68;99176.20;104951;1256;69249;-60
2023/04/20 07:40:05;;;;;;;10.90;2.70;;;;;;;19.59;47.70;99170.83;104908;1257;72380;-61
2023/04/20 07:42:35;;;;;;;15.20;3.30;;;;;;;19.61;47.76;99172.45;104646;1256;60872;-62
2023/04/20 07:45:08;;;;;;;16.10;3.20;;;;;;;19.61;47.76;99172.80;104758;1267;60845;-61
2023/04/20 07:47:36;;;;;;;9.90;3.20;;;;;;;19.63;47.85;99170.27;105070;1254;75312;-62
2023/04/20 07:50:07;;;;;;;14.30;3.20;;;;;;;19.66;47.65;99167.04;105103;1256;70133;-63
2023/04/20 07:52:36;;;;;;;14.70;2.90;;;;;;;19.67;47.43;99161.81;104801;1250;72159;-61
2023/04/20 07:55:06;;;;;;;13.90;2.80;;;;;;;19.64;47.27;99166.30;104567;1264;61873;-62
2023/04/20 07:57:35;;;;;;;13.80;2.80;;;;;;;19.70;47.17;99162.55;104910;1257;60425;-61
2023/04/20 08:00:06;;;;;;;15.70;3.10;;;;;;;19.77;46.98;99163.92;104752;1254;74477;-62
2023/04/20 08:04:49;;;;;;;10.80;3.10;;;;;;;18.82;51.96;99164.81;101880;1288;601403;-60
2023/04/20 08:07:18;;;;;;;13.10;2.90;;;;;;;19.95;46.77;99170.17;103735;1270;61129;-60
2023/04/20 08:09:47;;;;;;;13.30;3.50;;;;;;;19.92;46.53;99172.96;104225;1271;60351;-61
2023/04/20 08:12:15;;;;;;;13.90;3.10;;;;;;;19.84;46.57;99169.93;104180;1269;73305;-61
2023/04/20 08:14:44;;;;;;;15.90;2.60;;;;;;;19.85;46.48;99168.96;103910;1273;69866;-60
2023/04/20 08:17:12;;;;;;;13.00;2.70;;;;;;;19.85;46.31;99170.73;104028;1270;71854;-60
2023/04/20 08:19:41;;;;;;;14.20;3.40;;;;;;;19.88;46.25;99172.95;104078;1267;62826;-66
2023/04/20 08:22:13;;;;;;;10.90;2.90;;;;;;;19.77;46.12;99179.41;104320;1255;60005;-61
2023/04/20 08:24:41;;;;;;;14.40;3.20;;;;;;;19.81;46.08;99167.67;104441;1258;72447;-61
2023/04/20 08:27:09;;;;;;;11.10;3.10;;;;;;;19.68;46.34;99169.32;104501;1260;69782;-60
2023/04/20 08:29:38;;;;;;;15.00;3.30;;;;;;;19.62;46.57;99165.91;105101;1257;72899;-61
2023/04/20 08:32:11;;;;;;;12.30;3.20;;;;;;;19.60;46.85;99168.98;104449;1265;63541;-60
2023/04/20 08:34:39;;;;;;;17.60;2.80;;;;;;;19.61;46.81;99177.42;105057;1257;59991;-62
2023/04/20 08:37:08;;;;;;;11.20;3.20;;;;;;;19.59;47.39;99174.55;104659;1254;72177;-61
2023/04/20 08:39:37;;;;;;;12.20;3.30;;;;;;;19.55;47.60;99176.86;104586;1257;68363;-60
2023/04/20 08:42:06;;;;;;;15.80;3.90;;;;;;;19.46;47.67;99174.81;104765;1257;73168;-61
2023/04/20 08:44:34;;;;;;;18.90;4.20;;;;;;;19.36;48.38;99184.75;104513;1258;61261;-60
2023/04/20 08:47:03;;;;;;;11.90;3.10;;;;;;;19.28;48.73;99183.52;104430;1267;59364;-60
2023/04/20 08:49:32;;;;;;;11.50;3.20;;;;;;;19.17;48.62;99180.87;104403;1259;73206;-60
2023/04/20 08:52:00;;;;;;;12.00;4.40;;;;;;;19.11;48.78;99179.65;104400;1254;69613;-60
2023/04/20 08:54:29;;;;;;;12.10;3.30;;;;;;;19.11;48.61;99184.25;104414;1260;72926;-63
2023/04/20 08:56:58;;;;;;;12.60;3.00;;;;;;;19.10;48.53;99188.35;104302;1270;61753;-62
2023/04/20 08:59:26;;;;;;;12.80;2.90;;;;;;;19.15;49.02;99179.65;104326;1273;61462;-61
2023/04/20 09:01:55;;;;;;;11.00;2.80;;;;;;;19.07;48.88;99185.06;104484;1260;72271;-61
2023/04/20 09:04:25;;;;;;;13.10;3.20;;;;;;;19.03;49.15;99184.21;104356;1270;69163;-61
2023/04/20 09:06:55;;;;;;;12.40;3.30;;;;;;;19.04;49.20;99186.02;104582;1258;72646;-62
2023/04/20 09:09:24;;;;;;;10.30;2.80;;;;;;;19.03;49.28;99188.26;104400;1263;62109;-61
2023/04/20 09:12:06;;;;;;;10.20;3.20;;;;;;;18.94;49.43;99187.23;104397;1260;59929;-61
2023/04/20 09:14:43;;;;;;;16.80;3.10;;;;;;;18.93;50.20;99188.23;104442;1267;72457;-62
2023/04/20 09:17:13;;;;;;;12.30;3.80;;;;;;;18.96;49.77;99192.24;104464;1270;70679;-62
2023/04/20 09:19:43;;;;;;;18.20;3.40;;;;;;;18.94;50.12;99191.74;104398;1254;72370;-62
2023/04/20 09:22:11;;;;;;;10.70;3.40;;;;;;;18.92;50.71;99190.64;104589;1260;61867;-61
2023/04/20 09:24:41;;;;;;;9.00;3.10;;;;;;;18.89;50.49;99182.19;104751;1254;59810;-61
2023/04/20 09:27:16;;;;;;;19.40;3.20;;;;;;;18.92;51.64;99179.40;104828;1255;72132;-61
2023/04/20 09:29:58;;;;;;;10.10;2.80;;;;;;;18.92;51.24;99182.99;104521;1258;70160;-63
2023/04/20 09:32:28;;;;;;;18.20;3.20;;;;;;;18.89;51.64;99176.83;104705;1260;73701;-63
2023/04/20 09:34:57;;;;;;;14.90;3.70;;;;;;;18.93;51.42;99183.30;104936;1254;61711;-63
2023/04/20 09:37:25;;;;;;;15.70;3.20;;;;;;;18.89;51.30;99173.89;104715;1254;61587;-62
2023/04/20 09:39:54;;;;;;;12.40;3.00;;;;;;;18.91;51.79;99184.68;104632;1257;73087;-64
2023/04/20 09:42:23;;;;;;;13.20;3.40;;;;;;;18.91;51.38;99180.96;104888;1254;69014;-62
2023/04/20 09:44:51;;;;;;;14.00;3.40;;;;;;;18.80;52.11;99178.64;104407;1263;73063;-63
2023/04/20 09:47:20;;;;;;;13.00;3.30;;;;;;;18.87;51.57;99181.83;104296;1263;62004;-61
2023/04/20 09:49:49;;;;;;;14.80;2.90;;;;;;;18.91;51.98;99175.95;104826;1255;59710;-59
2023/04/20 09:52:17;;;;;;;9.40;2.90;;;;;;;18.92;52.36;99182.48;104596;1260;74368;-64
2023/04/20 09:54:46;;;;;;;14.60;2.70;;;;;;;18.90;51.64;99175.53;104982;1254;69696;-65
2023/04/20 09:57:15;;;;;;;12.60;3.10;;;;;;;18.79;51.97;99183.14;104890;1257;72502;-66
2023/04/20 09:59:45;;;;;;;9.40;3.20;;;;;;;18.79;52.36;99176.46;104693;1254;61497;-67
2023/04/20 10:02:13;;;;;;;7.80;2.70;;;;;;;18.86;51.92;99181.88;104977;1257;61243;-66
2023/04/20 10:04:55;;;;;;;14.20;3.00;;;;;;;18.87;51.82;99184.14;104444;1257;72325;-66
2023/04/20 10:07:25;;;;;;;13.00;2.90;;;;;;;18.88;51.87;99178.34;105206;1255;68432;-67
2023/04/20 10:10:08;;;;;;;12.20;3.10;;;;;;;18.76;52.73;99185.56;104649;1255;71930;-68
2023/04/20 10:12:54;;;;;;;9.40;2.70;;;;;;;18.88;52.37;99186.92;104825;1253;62855;-67
2023/04/20 10:15:23;;;;;;;11.40;2.40;;;;;;;18.96;52.07;99185.29;104586;1254;59675;-65
2023/04/20 10:17:52;;;;;;;10.10;2.90;;;;;;;19.06;52.20;99183.02;104659;1254;72183;-64
2023/04/20 10:20:21;;;;;;;12.10;3.10;;;;;;;19.11;51.53;99183.90;104393;1255;69740;-69
2023/04/20 10:22:53;;;;;;;18.80;2.70;;;;;;;19.16;51.50;99184.52;104438;1258;73817;-65
2023/04/20 10:25:23;;;;;;;9.30;2.60;;;;;;;19.20;51.63;99190.20;104993;1254;60930;-65
2023/04/20 10:27:56;;;;;;;16.40;2.90;;;;;;;19.25;51.82;99185.14;104648;1254;59866;-64
2023/04/20 10:30:25;;;;;;;11.30;2.80;;;;;;;19.35;51.41;99187.88;105028;1254;73510;-64
2023/04/20 10:33:03;;;;;;;8.50;2.90;;;;;;;19.35;51.62;99188.90;104956;1254;68654;-65
2023/04/20 10:35:41;;;;;;;;;;;;;;;19.40;52.43;99191.70;105096;1254;72606;-64
2023/04/20 10:38:13;;;;;;;7.30;2.10;;;;;;;19.47;52.24;99190.17;104937;1254;61458;-64
2023/04/20 10:40:41;;;;;;;11.90;2.50;;;;;;;19.35;52.04;99189.80;105051;1254;60157;-65
2023/04/20 10:43:22;;;;;;;10.80;2.80;;;;;;;19.29;52.03;99186.20;104317;1268;73289;-65
2023/04/20 10:45:52;;;;;;;12.10;2.80;;;;;;;19.27;52.19;99190.10;104387;1254;70526;-66
2023/04/20 10:48:21;;;;;;;9.10;2.40;;;;;;;19.27;52.05;99188.20;104779;1257;72748;-64
2023/04/20 10:50:49;;;;;;;5.90;2.30;;;;;;;19.30;52.37;99186.67;104351;1253;61129;-64
2023/04/20 10:53:21;;;;;;;13.20;2.40;;;;;;;19.30;52.50;99186.72;104544;1261;60508;-64
2023/04/20 10:55:59;;;;;;;7.60;2.90;;;;;;;19.35;52.20;99181.27;104653;1257;73471;-65
2023/04/20 10:58:28;;;;;;;9.50;2.80;;;;;;;19.41;51.93;99185.02;104495;1258;69109;-63
2023/04/20 11:01:00;;;;;;;8.30;2.30;;;;;;;19.44;51.90;99181.75;104601;1257;72165;-65
2023/04/20 11:03:30;;;;;;;15.60;3.00;;;;;;;19.54;51.41;99179.67;104839;1255;61376;-63
2023/04/20 11:06:00;;;;;;;8.90;2.70;;;;;;;19.44;51.67;99185.48;104732;1254;59736;-64
2023/04/20 11:08:39;;;;;;;14.70;3.00;;;;;;;19.52;51.29;99184.12;104488;1254;74541;-65
2023/04/20 11:11:19;;;;;;;15.20;2.80;;;;;;;19.40;51.62;99190.95;104350;1254;70272;-64
2023/04/20 11:13:47;;;;;;;10.50;3.00;;;;;;;19.55;51.36;99191.95;104536;1255;72879;-62
2023/04/20 11:16:17;;;;;;;9.10;3.00;;;;;;;19.69;51.41;99193.24;104312;1254;61982;-63
2023/04/20 11:18:53;;;;;;;8.60;2.70;;;;;;;19.75;51.33;99194.88;104381;1253;60128;-64
2023/04/20 11:21:21;;;;;;;11.60;2.50;;;;;;;19.74;51.34;99193.33;104603;1266;72938;-63
2023/04/20 11:23:50;;;;;;;12.40;2.70;;;;;;;19.75;51.55;99197.05;104230;1273;68930;-64
2023/04/20 11:26:18;;;;;;;11.80;3.10;;;;;;;19.76;51.52;99203.48;104279;1258;72410;-65
2023/04/20 11:28:53;;;;;;;10.20;2.80;;;;;;;19.72;52.13;99213.10;104405;1255;60783;-65
2023/04/20 11:31:25;;;;;;;11.40;2.80;;;;;;;19.64;52.67;99219.15;104373;1253;59756;-63
2023/04/20 11:33:54;;;;;;;12.30;3.10;;;;;;;19.56;53.01;99230.48;104545;1254;73102;-63
2023/04/20 11:36:23;;;;;;;7.90;3.10;;;;;;;19.46;53.62;99230.80;104353;1256;69211;-64